Time;durP1;ratioP1;P1;durP2;ratioP2;P2;SDS_P1;SDS_P2;PMS_P1;PMS_P2;Temp;Humidity;BMP_temperature;BMP_pressure;BME280_temperature;BME280_humidity;BME280_pressure;Samples;Min_cycle;Max_cycle;Signal;HPM_P1;HPM_P2
2022/09/10 00:01:32;;;;;;;6.43;4.50;;;15.80;99.90;;;;;;5020727;28;20211;-75
2022/09/10 00:04:00;;;;;;;8.45;4.53;;;15.90;99.90;;;;;;5012309;28;20203;-76
2022/09/10 00:06:28;;;;;;;5.53;4.05;;;15.80;99.90;;;;;;5013531;28;20497;-75
2022/09/10 00:08:57;;;;;;;6.57;3.95;;;15.90;99.90;;;;;;5019011;28;20348;-80
2022/09/10 00:11:25;;;;;;;6.97;3.97;;;15.80;99.90;;;;;;5032384;28;20213;-80
2022/09/10 00:13:52;;;;;;;4.00;3.60;;;15.90;99.90;;;;;;5025300;28;20203;-85
2022/09/10 00:16:21;;;;;;;4.85;4.32;;;15.90;99.90;;;;;;5015664;28;20590;-87
2022/09/10 00:18:50;;;;;;;6.88;4.85;;;15.90;99.90;;;;;;5015413;28;20672;-83
2022/09/10 00:21:19;;;;;;;5.78;4.20;;;15.90;99.90;;;;;;5015683;28;20500;-85
2022/09/10 00:23:47;;;;;;;8.93;5.72;;;15.90;99.90;;;;;;5014397;28;20592;-78
2022/09/10 00:26:18;;;;;;;10.00;6.00;;;15.90;99.90;;;;;;5013593;28;20230;-74
2022/09/10 00:28:45;;;;;;;11.15;6.38;;;15.90;99.90;;;;;;5033320;28;20206;-76
2022/09/10 00:31:13;;;;;;;9.70;6.72;;;15.90;99.90;;;;;;5032351;28;20211;-74
2022/09/10 00:33:41;;;;;;;8.75;7.03;;;15.90;99.90;;;;;;5013312;28;20218;-76
2022/09/10 00:36:16;;;;;;;9.57;6.40;;;15.90;99.90;;;;;;5013710;28;20310;-75
2022/09/10 00:38:43;;;;;;;7.90;6.60;;;15.90;99.90;;;;;;5012812;28;20206;-75
2022/09/10 00:41:10;;;;;;;8.45;7.05;;;15.90;99.90;;;;;;5012696;28;20199;-75
2022/09/10 00:43:52;;;;;;;9.27;6.45;;;15.90;99.90;;;;;;5012725;28;20206;-75
2022/09/10 00:46:26;;;;;;;7.97;6.65;;;15.90;99.90;;;;;;5014738;28;20806;-86
2022/09/10 00:48:57;;;;;;;10.30;6.47;;;15.90;99.90;;;;;;5032721;28;20194;-75
2022/09/10 00:51:25;;;;;;;10.23;6.30;;;16.00;99.90;;;;;;5032506;28;20195;-75
2022/09/10 00:53:52;;;;;;;8.18;6.25;;;16.00;99.90;;;;;;5024957;28;20607;-81
2022/09/10 00:56:19;;;;;;;7.35;4.30;;;15.90;99.90;;;;;;5012742;28;20232;-80
2022/09/10 00:58:48;;;;;;;9.35;4.30;;;16.00;99.90;;;;;;5012595;28;20210;-75
2022/09/10 01:01:15;;;;;;;10.15;4.88;;;15.90;99.90;;;;;;5011668;28;20265;-76
2022/09/10 01:03:44;;;;;;;5.95;3.58;;;15.90;99.90;;;;;;5012696;28;20222;-74
2022/09/10 01:06:12;;;;;;;5.32;3.53;;;15.90;99.90;;;;;;5011974;28;20199;-75
2022/09/10 01:08:39;;;;;;;7.40;4.10;;;15.90;99.90;;;;;;5012272;28;20599;-77
2022/09/10 01:11:18;;;;;;;8.02;4.50;;;15.90;99.90;;;;;;5013695;28;20199;-75
2022/09/10 01:14:00;;;;;;;6.70;4.53;;;15.90;99.90;;;;;;5032457;28;20270;-79
2022/09/10 01:16:33;;;;;;;8.27;5.07;;;16.00;99.90;;;;;;5031931;28;20251;-77
2022/09/10 01:19:13;;;;;;;8.10;4.95;;;15.90;99.90;;;;;;5032914;28;20191;-78
2022/09/10 01:21:51;;;;;;;8.05;4.43;;;15.90;99.90;;;;;;5031627;28;20218;-81
2022/09/10 01:24:43;;;;;;;7.10;5.00;;;15.90;99.90;;;;;;5025253;28;20199;-77
2022/09/10 01:27:35;;;;;;;7.20;5.25;;;15.90;99.90;;;;;;5012782;28;20184;-81
2022/09/10 01:30:07;;;;;;;6.40;5.10;;;15.90;99.90;;;;;;5012585;28;20231;-80
2022/09/10 01:32:44;;;;;;;8.77;5.13;;;15.90;99.90;;;;;;5012846;28;20639;-80
2022/09/10 01:35:16;;;;;;;9.57;5.68;;;15.90;99.90;;;;;;5012108;28;20282;-77
2022/09/10 01:37:47;;;;;;;10.48;5.10;;;15.80;99.90;;;;;;5025646;28;20210;-81
2022/09/10 01:40:16;;;;;;;6.93;4.50;;;15.80;99.90;;;;;;5032456;28;20202;-82
2022/09/10 01:42:45;;;;;;;11.68;5.78;;;15.90;99.90;;;;;;5032219;28;20277;-74
2022/09/10 01:45:14;;;;;;;9.25;4.55;;;15.80;99.90;;;;;;5036076;28;20257;-81
2022/09/10 01:48:06;;;;;;;8.63;5.63;;;15.80;99.90;;;;;;5035974;28;20244;-81
2022/09/10 01:50:42;;;;;;;9.75;6.22;;;15.80;99.90;;;;;;5035009;28;20194;-76
2022/09/10 01:53:32;;;;;;;11.52;6.45;;;15.80;99.90;;;;;;5035687;28;20190;-77
2022/09/10 01:56:05;;;;;;;13.25;7.18;;;15.80;99.90;;;;;;5035048;28;20260;-76
2022/09/10 01:58:38;;;;;;;11.85;6.55;;;15.80;99.90;;;;;;5035028;28;20209;-80
2022/09/10 02:01:14;;;;;;;11.77;5.88;;;15.80;99.90;;;;;;5035485;28;20535;-77
2022/09/10 02:03:44;;;;;;;12.65;6.22;;;15.70;99.90;;;;;;5015083;28;20191;-80
2022/09/10 02:06:15;;;;;;;9.43;6.22;;;15.70;99.90;;;;;;5015938;28;20203;-79
2022/09/10 02:08:44;;;;;;;9.38;5.97;;;15.70;99.90;;;;;;5016186;28;20233;-80
2022/09/10 02:11:13;;;;;;;7.50;5.00;;;15.70;99.90;;;;;;5015011;28;20824;-81
2022/09/10 02:13:42;;;;;;;12.05;6.18;;;15.70;99.90;;;;;;5015639;28;20282;-80
2022/09/10 02:16:12;;;;;;;9.23;5.75;;;15.70;99.90;;;;;;5015595;28;20207;-75
2022/09/10 02:18:41;;;;;;;7.70;5.75;;;15.70;99.90;;;;;;5015254;28;20730;-80
2022/09/10 02:21:10;;;;;;;8.25;5.65;;;15.70;99.90;;;;;;5015762;28;20234;-81
2022/09/10 02:23:43;;;;;;;8.90;5.75;;;15.70;99.90;;;;;;5015724;28;20546;-79
2022/09/10 02:26:10;;;;;;;11.23;6.82;;;15.70;99.90;;;;;;5014933;28;20192;-77
2022/09/10 02:28:37;;;;;;;14.07;7.20;;;15.70;99.90;;;;;;5015132;28;20214;-77
2022/09/10 02:31:05;;;;;;;11.35;7.43;;;15.70;99.90;;;;;;5015377;28;20234;-81
2022/09/10 02:33:32;;;;;;;12.63;9.18;;;15.70;99.90;;;;;;5014948;28;20203;-76
2022/09/10 02:35:59;;;;;;;14.15;9.00;;;15.70;99.90;;;;;;5015214;28;20218;-80
2022/09/10 02:38:28;;;;;;;16.05;10.25;;;15.70;99.90;;;;;;5015127;28;20440;-82
2022/09/10 02:40:58;;;;;;;13.45;9.50;;;15.70;99.90;;;;;;5015599;28;20249;-81
2022/09/10 02:43:24;;;;;;;16.40;10.60;;;15.70;99.90;;;;;;5015395;28;20200;-81
2022/09/10 02:45:55;;;;;;;14.88;10.38;;;15.70;99.90;;;;;;5014086;28;20314;-81
2022/09/10 02:48:24;;;;;;;14.13;10.05;;;15.70;99.90;;;;;;5032694;28;20344;-80
2022/09/10 02:50:51;;;;;;;15.57;11.50;;;15.70;99.90;;;;;;5034904;28;20206;-81
2022/09/10 02:53:18;;;;;;;14.00;10.05;;;15.80;99.90;;;;;;5034465;28;20298;-80
2022/09/10 02:55:46;;;;;;;16.35;11.25;;;15.80;99.90;;;;;;5034932;28;20293;-80
2022/09/10 02:58:13;;;;;;;23.45;11.88;;;15.80;99.90;;;;;;5035032;28;20253;-81
2022/09/10 03:00:40;;;;;;;18.40;12.68;;;15.80;99.90;;;;;;5034317;28;20197;-81
2022/09/10 03:03:07;;;;;;;19.48;12.98;;;15.80;99.90;;;;;;5022214;28;20211;-80
2022/09/10 03:05:37;;;;;;;19.92;14.18;;;15.80;99.90;;;;;;5014472;28;20213;-80
2022/09/10 03:08:05;;;;;;;14.95;11.75;;;15.80;99.90;;;;;;5013960;28;20486;-81
2022/09/10 03:10:32;;;;;;;19.02;13.70;;;15.80;99.90;;;;;;5014857;28;20687;-81
2022/09/10 03:12:59;;;;;;;14.45;11.80;;;15.80;99.90;;;;;;5014970;28;20775;-80
2022/09/10 03:15:27;;;;;;;13.60;11.52;;;15.80;99.90;;;;;;5013884;28;20207;-79
2022/09/10 03:17:54;;;;;;;20.80;14.73;;;15.80;99.90;;;;;;5026843;28;20233;-77
2022/09/10 03:20:21;;;;;;;17.13;12.98;;;15.80;99.90;;;;;;5034406;28;20626;-82
2022/09/10 03:22:50;;;;;;;13.77;12.07;;;15.90;99.90;;;;;;5033191;28;20199;-78
2022/09/10 03:25:17;;;;;;;22.30;17.70;;;15.90;99.90;;;;;;5033865;28;20283;-79
2022/09/10 03:27:44;;;;;;;19.77;16.40;;;15.90;99.90;;;;;;5028395;28;20218;-79
2022/09/10 03:30:11;;;;;;;17.50;14.80;;;15.90;99.90;;;;;;5014663;28;20497;-81
2022/09/10 03:32:38;;;;;;;18.23;14.02;;;15.90;99.90;;;;;;5014526;28;20207;-81
2022/09/10 03:35:06;;;;;;;19.80;15.07;;;15.90;99.90;;;;;;5013292;28;20207;-81
2022/09/10 03:37:32;;;;;;;14.75;12.75;;;15.90;99.90;;;;;;5014465;28;20226;-79
2022/09/10 03:40:00;;;;;;;14.48;12.15;;;15.90;99.90;;;;;;5014433;28;20211;-80
2022/09/10 03:42:27;;;;;;;16.95;14.93;;;15.90;99.90;;;;;;5013579;28;20203;-81
2022/09/10 03:44:55;;;;;;;16.20;13.95;;;15.90;99.90;;;;;;5014021;28;20235;-81
2022/09/10 03:47:21;;;;;;;22.70;16.73;;;15.90;99.90;;;;;;5014157;28;20238;-78
2022/09/10 03:49:49;;;;;;;22.02;15.98;;;15.90;99.90;;;;;;5031770;28;20217;-79
2022/09/10 03:52:16;;;;;;;18.85;16.58;;;15.90;99.90;;;;;;5033955;28;20646;-80
2022/09/10 03:54:44;;;;;;;18.42;14.75;;;15.90;99.90;;;;;;5031856;28;20205;-81
2022/09/10 03:57:12;;;;;;;15.88;12.93;;;15.90;99.90;;;;;;5013292;28;20604;-81
2022/09/10 03:59:40;;;;;;;17.75;15.02;;;15.90;99.90;;;;;;5020867;28;20297;-76
2022/09/10 04:02:07;;;;;;;18.83;15.10;;;15.90;99.90;;;;;;5032903;28;20214;-78
2022/09/10 04:04:36;;;;;;;15.98;14.38;;;15.90;99.90;;;;;;5033157;28;20198;-81
2022/09/10 04:07:03;;;;;;;16.05;14.43;;;15.90;99.90;;;;;;5033219;28;20665;-75
2022/09/10 04:09:31;;;;;;;17.40;15.23;;;15.90;99.90;;;;;;5032864;28;20249;-76
2022/09/10 04:11:58;;;;;;;20.48;16.92;;;15.90;99.90;;;;;;5017153;28;20282;-75
2022/09/10 04:14:26;;;;;;;16.63;15.02;;;15.90;99.90;;;;;;5013196;28;20199;-76
2022/09/10 04:16:53;;;;;;;14.40;12.10;;;15.90;99.90;;;;;;5013058;28;20616;-76
2022/09/10 04:19:20;;;;;;;15.70;14.15;;;16.00;99.90;;;;;;5013557;28;20208;-78
2022/09/10 04:21:47;;;;;;;14.15;12.63;;;16.00;99.90;;;;;;5012666;28;20222;-77
2022/09/10 04:24:14;;;;;;;14.18;12.73;;;16.00;99.90;;;;;;5012322;28;20183;-78
2022/09/10 04:26:41;;;;;;;14.40;12.35;;;16.00;99.90;;;;;;5013479;28;20205;-78
2022/09/10 04:29:08;;;;;;;16.33;14.60;;;16.00;99.90;;;;;;5027637;28;20226;-77
2022/09/10 04:31:37;;;;;;;14.43;13.05;;;16.00;99.90;;;;;;5030584;28;20631;-79
2022/09/10 04:34:04;;;;;;;16.73;15.02;;;16.00;99.90;;;;;;5013005;28;20682;-77
2022/09/10 04:36:31;;;;;;;16.73;15.02;;;16.00;99.90;;;;;;5013128;28;20199;-80
2022/09/10 04:38:58;;;;;;;15.07;13.60;;;16.00;99.90;;;;;;5011981;28;20231;-77
2022/09/10 04:41:25;;;;;;;17.50;15.77;;;16.00;99.90;;;;;;5013149;28;20199;-80
2022/09/10 04:43:52;;;;;;;20.15;17.75;;;16.00;99.90;;;;;;5012908;28;20202;-79
2022/09/10 04:46:19;;;;;;;20.92;17.73;;;16.00;99.90;;;;;;5012289;28;20239;-78
2022/09/10 04:48:47;;;;;;;20.65;17.90;;;15.90;99.90;;;;;;5013861;28;20217;-77
2022/09/10 04:51:14;;;;;;;20.15;18.02;;;15.90;99.90;;;;;;5013009;28;20219;-80
2022/09/10 04:53:41;;;;;;;22.02;19.83;;;16.00;99.90;;;;;;5013269;28;20196;-81
2022/09/10 04:56:08;;;;;;;19.50;17.15;;;15.90;99.90;;;;;;5023357;28;20210;-76
2022/09/10 04:58:35;;;;;;;18.42;16.42;;;16.00;99.90;;;;;;5032548;28;20515;-78
2022/09/10 05:01:02;;;;;;;19.02;17.00;;;16.00;99.90;;;;;;5031314;28;20202;-80
2022/09/10 05:03:29;;;;;;;20.60;18.50;;;16.00;99.90;;;;;;5032546;28;20302;-79
2022/09/10 05:05:57;;;;;;;21.52;19.33;;;16.00;99.90;;;;;;5032253;28;20194;-76
2022/09/10 05:08:24;;;;;;;20.55;18.50;;;16.00;99.90;;;;;;5031880;28;20207;-80
2022/09/10 05:10:51;;;;;;;21.90;19.52;;;16.00;99.90;;;;;;5032503;28;20191;-80
2022/09/10 05:13:18;;;;;;;20.40;18.27;;;16.00;99.90;;;;;;5032144;28;20203;-80
2022/09/10 05:15:44;;;;;;;19.70;16.67;;;16.00;99.90;;;;;;5032054;28;20506;-80
2022/09/10 05:18:11;;;;;;;22.42;19.85;;;16.00;99.90;;;;;;5013733;28;20227;-80
2022/09/10 05:20:38;;;;;;;19.55;17.45;;;16.00;99.90;;;;;;5012219;28;20208;-80
2022/09/10 05:23:06;;;;;;;26.10;22.50;;;16.10;99.90;;;;;;5024050;28;20207;-79
2022/09/10 05:25:33;;;;;;;24.15;21.38;;;16.10;99.90;;;;;;5032593;28;20286;-80
2022/09/10 05:28:00;;;;;;;27.10;22.33;;;16.10;99.90;;;;;;5012907;28;20511;-80
2022/09/10 05:30:31;;;;;;;23.60;21.13;;;16.10;99.90;;;;;;5012419;28;20745;-77
2022/09/10 05:32:59;;;;;;;28.67;24.50;;;16.10;99.90;;;;;;5011791;28;20784;-78
2022/09/10 05:35:27;;;;;;;27.75;24.70;;;16.10;99.90;;;;;;5011960;28;20203;-76
2022/09/10 05:37:56;;;;;;;22.95;20.42;;;16.10;99.90;;;;;;5012290;28;20223;-75
2022/09/10 05:40:25;;;;;;;32.70;25.42;;;16.10;99.90;;;;;;5025902;28;20202;-75
2022/09/10 05:42:53;;;;;;;30.90;24.48;;;16.10;99.90;;;;;;5030965;28;20199;-77
2022/09/10 05:45:20;;;;;;;25.65;22.48;;;16.20;99.90;;;;;;5031595;28;20304;-76
2022/09/10 05:47:47;;;;;;;26.73;21.73;;;16.20;99.90;;;;;;5032269;28;20583;-76
2022/09/10 05:50:14;;;;;;;25.05;21.05;;;16.20;99.90;;;;;;5015565;28;20211;-76
2022/09/10 05:52:41;;;;;;;31.70;24.08;;;16.10;99.90;;;;;;5012271;28;20199;-76
2022/09/10 05:55:08;;;;;;;25.63;21.67;;;16.20;99.90;;;;;;5011753;28;20199;-81
2022/09/10 05:57:39;;;;;;;24.98;21.88;;;16.20;99.90;;;;;;5011007;28;20289;-79
2022/09/10 06:00:08;;;;;;;19.55;17.42;;;16.20;99.90;;;;;;5012280;28;20207;-76
2022/09/10 06:02:35;;;;;;;25.55;20.63;;;16.20;99.90;;;;;;5020393;28;20226;-76
2022/09/10 06:05:02;;;;;;;24.10;21.50;;;16.20;99.90;;;;;;5030915;28;20609;-77
2022/09/10 06:07:30;;;;;;;23.95;20.63;;;16.30;99.90;;;;;;5016572;28;20203;-76
2022/09/10 06:09:58;;;;;;;28.48;22.80;;;16.30;99.90;;;;;;5011170;28;20206;-77
2022/09/10 06:12:25;;;;;;;24.48;21.80;;;16.30;99.90;;;;;;5011679;28;20280;-76
2022/09/10 06:14:53;;;;;;;24.95;19.13;;;16.30;99.90;;;;;;5015012;28;20210;-77
2022/09/10 06:17:20;;;;;;;25.90;20.42;;;16.30;99.90;;;;;;5028244;28;20251;-77
2022/09/10 06:19:47;;;;;;;23.15;20.35;;;16.40;99.90;;;;;;5022843;28;20298;-82
2022/09/10 06:22:15;;;;;;;25.42;21.58;;;16.40;99.90;;;;;;5028074;28;20203;-77
2022/09/10 06:24:42;;;;;;;24.33;19.98;;;16.40;99.90;;;;;;5023631;28;20206;-77
2022/09/10 06:27:09;;;;;;;33.05;24.13;;;16.40;99.90;;;;;;5030443;28;20209;-81
2022/09/10 06:29:36;;;;;;;28.45;23.20;;;16.40;99.90;;;;;;5032210;28;20226;-77
2022/09/10 06:32:05;;;;;;;29.05;21.73;;;16.40;99.90;;;;;;5033328;28;20504;-79
2022/09/10 06:34:32;;;;;;;25.85;19.27;;;16.40;99.90;;;;;;5035113;28;20195;-78
2022/09/10 06:37:01;;;;;;;22.23;19.17;;;16.40;99.90;;;;;;5027041;28;20215;-79
2022/09/10 06:39:28;;;;;;;29.77;22.80;;;16.40;99.90;;;;;;5014563;28;20231;-76
2022/09/10 06:41:54;;;;;;;27.05;21.85;;;16.50;99.90;;;;;;5015863;28;20191;-75
2022/09/10 06:44:22;;;;;;;26.52;22.60;;;16.50;99.90;;;;;;5030342;28;20213;-80
2022/09/10 06:46:49;;;;;;;24.00;20.75;;;16.50;99.90;;;;;;5032155;28;20194;-81
2022/09/10 06:49:17;;;;;;;27.15;22.77;;;16.60;99.90;;;;;;5025903;28;20203;-76
2022/09/10 06:51:44;;;;;;;28.23;22.42;;;16.60;99.90;;;;;;5020918;28;20211;-76
2022/09/10 06:54:11;;;;;;;25.65;21.73;;;16.60;99.90;;;;;;5031843;28;20858;-80
2022/09/10 06:56:40;;;;;;;22.10;19.63;;;16.70;99.90;;;;;;5018053;28;20310;-77
2022/09/10 06:59:07;;;;;;;25.33;21.70;;;16.70;99.90;;;;;;5023161;28;20230;-77
2022/09/10 07:01:36;;;;;;;27.75;23.85;;;16.80;99.90;;;;;;5034229;28;20203;-78
2022/09/10 07:04:05;;;;;;;28.60;24.17;;;16.70;99.90;;;;;;5026676;28;20210;-79
2022/09/10 07:06:35;;;;;;;24.13;20.52;;;16.80;99.90;;;;;;5032728;28;20321;-81
2022/09/10 07:09:02;;;;;;;26.30;21.45;;;16.70;99.90;;;;;;5040476;28;20197;-79
2022/09/10 07:11:30;;;;;;;22.98;20.42;;;16.80;99.90;;;;;;5038592;28;20234;-79
2022/09/10 07:13:58;;;;;;;23.25;19.60;;;16.80;99.90;;;;;;5047230;28;20474;-77
2022/09/10 07:16:27;;;;;;;23.58;20.17;;;16.80;99.90;;;;;;5031572;28;20213;-79
2022/09/10 07:18:55;;;;;;;29.77;22.75;;;16.90;99.90;;;;;;5032892;28;20222;-79
2022/09/10 07:21:25;;;;;;;27.85;23.08;;;17.00;99.90;;;;;;5032719;28;20212;-77
2022/09/10 07:23:56;;;;;;;25.42;22.73;;;17.00;99.90;;;;;;5033505;28;20195;-75
2022/09/10 07:26:23;;;;;;;28.33;23.02;;;17.00;99.90;;;;;;5034455;28;20187;-77
2022/09/10 07:28:51;;;;;;;24.83;21.70;;;17.10;99.90;;;;;;5032980;28;20203;-78
2022/09/10 07:31:19;;;;;;;24.70;22.00;;;17.10;99.90;;;;;;5023834;28;20731;-79
2022/09/10 07:33:47;;;;;;;23.70;20.10;;;17.20;99.90;;;;;;5013957;28;20206;-79
2022/09/10 07:36:14;;;;;;;22.38;20.05;;;17.30;99.90;;;;;;5013158;28;20646;-78
2022/09/10 07:38:42;;;;;;;29.40;24.05;;;17.30;99.90;;;;;;5014219;28;20226;-79
2022/09/10 07:41:12;;;;;;;24.05;20.95;;;17.40;99.90;;;;;;5012251;28;20211;-81
2022/09/10 07:43:40;;;;;;;23.35;19.65;;;17.50;99.90;;;;;;5014142;28;20392;-77
2022/09/10 07:46:07;;;;;;;25.08;21.70;;;17.50;99.90;;;;;;5014372;28;20235;-80
2022/09/10 07:48:33;;;;;;;26.75;23.08;;;17.50;99.90;;;;;;5013840;28;20519;-81
2022/09/10 07:51:05;;;;;;;22.33;19.98;;;17.60;99.90;;;;;;5014846;28;20203;-80
2022/09/10 07:53:32;;;;;;;25.55;21.55;;;17.70;99.90;;;;;;5014268;28;20207;-84
2022/09/10 07:56:01;;;;;;;20.42;18.35;;;17.70;99.90;;;;;;5028822;28;20534;-83
2022/09/10 07:58:30;;;;;;;15.75;14.07;;;17.70;99.90;;;;;;5034884;28;20231;-83
2022/09/10 08:00:58;;;;;;;18.88;16.30;;;17.70;99.90;;;;;;5034143;28;20511;-81
2022/09/10 08:03:25;;;;;;;19.25;16.05;;;17.70;99.90;;;;;;5033444;28;20632;-81
2022/09/10 08:05:52;;;;;;;16.33;14.40;;;17.70;99.90;;;;;;5034838;28;20194;-82
2022/09/10 08:08:19;;;;;;;16.80;13.55;;;17.70;99.90;;;;;;5034135;28;20202;-81
2022/09/10 08:10:47;;;;;;;15.57;13.98;;;17.80;99.90;;;;;;5034573;28;20234;-82
2022/09/10 08:13:14;;;;;;;14.50;13.02;;;17.80;99.90;;;;;;5034862;28;20198;-82
2022/09/10 08:15:43;;;;;;;14.25;12.75;;;17.80;99.90;;;;;;5034520;28;20249;-84
2022/09/10 08:18:12;;;;;;;16.92;13.80;;;17.90;99.90;;;;;;5033779;28;20226;-85
2022/09/10 08:20:39;;;;;;;15.13;13.48;;;18.10;99.90;;;;;;5034803;28;20241;-85
2022/09/10 08:23:07;;;;;;;14.10;12.68;;;18.30;99.90;;;;;;5034300;28;20203;-87
2022/09/10 08:25:35;;;;;;;12.40;11.07;;;18.50;99.90;;;;;;5034380;28;20202;-84
2022/09/10 08:28:02;;;;;;;12.35;9.57;;;18.70;99.90;;;;;;5035089;28;20295;-80
2022/09/10 08:30:30;;;;;;;12.55;9.32;;;18.80;99.90;;;;;;5033916;28;20643;-83
2022/09/10 08:32:59;;;;;;;13.27;9.77;;;18.90;99.90;;;;;;5034818;28;20198;-86
2022/09/10 08:35:26;;;;;;;9.40;8.40;;;18.80;99.90;;;;;;5030672;28;20291;-82
2022/09/10 08:37:53;;;;;;;10.27;9.27;;;18.80;99.90;;;;;;5013912;28;20219;-82
2022/09/10 08:40:22;;;;;;;9.77;8.77;;;18.90;99.90;;;;;;5015024;28;20547;-87
2022/09/10 08:42:51;;;;;;;10.18;7.97;;;19.10;99.90;;;;;;5014728;28;20207;-84
2022/09/10 08:45:22;;;;;;;10.90;8.32;;;19.20;99.90;;;;;;5013678;28;20230;-83
2022/09/10 08:47:57;;;;;;;7.53;6.28;;;19.30;99.90;;;;;;5017042;28;20760;-88
2022/09/10 08:50:35;;;;;;;7.32;5.60;;;19.50;99.90;;;;;;5034018;28;20186;-84
2022/09/10 08:53:12;;;;;;;5.57;4.38;;;19.50;99.90;;;;;;5032999;28;20551;-84
2022/09/10 08:55:41;;;;;;;4.28;3.42;;;19.50;99.90;;;;;;5033695;28;20224;-84
2022/09/10 08:58:17;;;;;;;6.70;4.93;;;19.50;99.90;;;;;;5034228;28;20253;-84
2022/09/10 09:00:46;;;;;;;6.57;5.75;;;19.50;99.90;;;;;;5033750;28;20238;-83
2022/09/10 09:03:18;;;;;;;5.60;5.07;;;19.50;99.90;;;;;;5034426;28;20209;-84
2022/09/10 09:05:49;;;;;;;5.63;5.00;;;19.60;99.90;;;;;;5034002;28;20187;-80
2022/09/10 09:08:18;;;;;;;6.25;4.57;;;19.70;99.90;;;;;;5031710;28;20470;-86
2022/09/10 09:10:49;;;;;;;5.63;4.88;;;19.90;99.90;;;;;;5013906;28;20207;-83
2022/09/10 09:13:47;;;;;;;6.30;4.45;;;20.20;99.90;;;;;;5013195;28;20286;-83
2022/09/10 09:16:26;;;;;;;6.15;4.32;;;20.30;99.90;;;;;;5003394;28;20214;-82
2022/09/10 09:19:05;;;;;;;4.30;3.90;;;20.60;99.90;;;;;;5013576;28;20215;-82
2022/09/10 09:21:44;;;;;;;5.32;4.82;;;20.90;99.90;;;;;;5016509;28;20482;-78
2022/09/10 09:24:21;;;;;;;5.70;4.10;;;21.20;99.90;;;;;;5032072;28;20194;-77
2022/09/10 09:26:48;;;;;;;5.15;4.55;;;21.30;99.90;;;;;;5031858;28;20572;-77
2022/09/10 09:29:19;;;;;;;6.43;5.10;;;21.40;99.90;;;;;;5032149;28;20277;-77
2022/09/10 09:31:49;;;;;;;5.95;5.35;;;21.60;99.90;;;;;;5031557;28;20194;-79
2022/09/10 09:34:22;;;;;;;8.65;5.57;;;21.60;99.90;;;;;;5030747;28;20274;-79
2022/09/10 09:36:54;;;;;;;7.07;5.20;;;21.40;99.90;;;;;;5031667;28;20598;-80
2022/09/10 09:39:26;;;;;;;5.65;5.07;;;21.20;99.90;;;;;;5021859;28;20511;-81
2022/09/10 09:42:00;;;;;;;8.73;6.13;;;21.00;99.90;;;;;;5011198;28;20203;-78
2022/09/10 09:44:33;;;;;;;8.50;6.05;;;20.70;99.90;;;;;;5011589;28;20564;-79
2022/09/10 09:47:00;;;;;;;8.30;6.15;;;20.60;99.90;;;;;;5011936;28;20207;-78
2022/09/10 09:49:28;;;;;;;7.95;6.10;;;20.30;99.90;;;;;;5011442;28;20200;-79
2022/09/10 09:51:57;;;;;;;8.15;7.45;;;20.20;99.90;;;;;;5011966;28;20200;-80
2022/09/10 09:54:27;;;;;;;8.13;7.32;;;20.10;99.90;;;;;;5011976;28;20203;-80
2022/09/10 09:56:58;;;;;;;8.65;6.22;;;20.00;99.90;;;;;;5030237;28;20232;-79
2022/09/10 09:59:27;;;;;;;6.50;5.88;;;20.10;99.90;;;;;;5031364;28;20218;-80
2022/09/10 10:01:55;;;;;;;7.28;6.10;;;20.30;99.90;;;;;;5021061;28;20880;-81
2022/09/10 10:04:24;;;;;;;6.40;5.70;;;20.60;99.90;;;;;;5013179;28;20596;-79
2022/09/10 10:06:55;;;;;;;8.45;6.07;;;20.90;99.90;;;;;;5016067;28;20272;-80
2022/09/10 10:09:27;;;;;;;6.97;4.82;;;21.10;99.90;;;;;;5015039;28;20587;-80
2022/09/10 10:11:56;;;;;;;6.72;5.75;;;21.40;99.90;;;;;;5015590;28;20728;-79
2022/09/10 10:14:37;;;;;;;6.63;5.68;;;21.50;99.90;;;;;;5016818;28;20210;-79
2022/09/10 10:17:22;;;;;;;6.20;5.63;;;21.80;99.90;;;;;;5034694;28;20216;-80
2022/09/10 10:19:58;;;;;;;7.45;5.50;;;22.00;99.90;;;;;;5035535;28;20229;-80
2022/09/10 10:22:28;;;;;;;7.05;6.35;;;22.20;99.90;;;;;;5035971;28;20190;-80
2022/09/10 10:24:57;;;;;;;6.10;5.50;;;22.40;99.90;;;;;;5018213;28;20211;-84
2022/09/10 10:27:31;;;;;;;7.75;5.50;;;22.60;99.90;;;;;;5016424;28;20201;-82
2022/09/10 10:30:01;;;;;;;5.80;5.18;;;22.80;99.90;;;;;;5034925;28;20227;-81
2022/09/10 10:32:43;;;;;;;6.30;4.55;;;22.80;99.90;;;;;;5035400;28;20222;-83
2022/09/10 10:35:29;;;;;;;6.95;4.43;;;22.50;99.90;;;;;;5035292;28;20231;-82
2022/09/10 10:38:21;;;;;;;4.78;3.90;;;22.10;99.90;;;;;;5035181;28;20270;-81
2022/09/10 10:40:56;;;;;;;4.47;3.80;;;21.80;99.90;;;;;;5028091;28;20615;-82
2022/09/10 10:43:34;;;;;;;6.63;3.63;;;21.50;99.90;;;;;;5015510;28;20203;-82
2022/09/10 10:46:04;;;;;;;5.50;3.20;;;21.70;99.90;;;;;;5015023;28;20235;-84
2022/09/10 10:48:46;;;;;;;4.45;2.75;;;22.00;99.90;;;;;;5015723;28;20199;-80
2022/09/10 10:51:18;;;;;;;2.92;2.63;;;22.30;99.90;;;;;;5034844;28;20531;-81
2022/09/10 10:54:01;;;;;;;4.32;2.70;;;22.80;99.90;;;;;;5022554;28;20219;-80
2022/09/10 10:56:36;;;;;;;4.13;3.72;;;23.00;99.90;;;;;;5015617;28;20191;-79
2022/09/10 10:59:25;;;;;;;5.03;3.10;;;23.00;99.90;;;;;;5014477;28;20237;-81
2022/09/10 11:01:57;;;;;;;5.32;3.28;;;22.80;99.90;;;;;;5015080;28;20199;-78
2022/09/10 11:04:31;;;;;;;3.33;2.20;;;22.50;99.90;;;;;;5014809;28;20273;-80
2022/09/10 11:07:05;;;;;;;3.70;2.00;;;22.30;99.90;;;;;;5014667;28;20199;-81
2022/09/10 11:09:37;;;;;;;2.25;1.50;;;22.10;99.90;;;;;;5025699;28;20595;-81
2022/09/10 11:12:13;;;;;;;4.15;2.00;;;21.90;99.90;;;;;;5033906;28;20603;-81
2022/09/10 11:14:47;;;;;;;5.65;2.50;;;22.00;99.90;;;;;;5033143;28;20211;-80
2022/09/10 11:17:21;;;;;;;3.45;1.60;;;22.20;99.90;;;;;;5033731;28;20202;-79
2022/09/10 11:20:00;;;;;;;2.63;2.20;;;22.50;99.90;;;;;;5033128;28;20215;-80
2022/09/10 11:22:32;;;;;;;2.55;2.00;;;22.80;99.90;;;;;;5034576;28;20210;-81
2022/09/10 11:25:07;;;;;;;3.78;2.40;;;23.00;99.90;;;;;;5034083;28;20262;-78
2022/09/10 11:27:42;;;;;;;3.17;2.50;;;23.30;99.90;;;;;;5031821;28;20197;-84
2022/09/10 11:30:12;;;;;;;3.28;2.10;;;23.30;99.90;;;;;;5014295;28;20234;-79
2022/09/10 11:32:42;;;;;;;2.85;1.95;;;23.20;99.90;;;;;;5014493;28;20258;-80
2022/09/10 11:35:20;;;;;;;3.08;1.75;;;23.10;99.90;;;;;;5013540;28;20196;-78
2022/09/10 11:38:00;;;;;;;5.03;1.77;;;22.90;99.90;;;;;;5014091;28;20564;-80
2022/09/10 11:40:34;;;;;;;3.38;2.03;;;22.60;99.90;;;;;;5032886;23;20269;-81
2022/09/10 11:43:06;;;;;;;2.10;1.85;;;22.70;99.90;;;;;;5034002;28;20195;-79
2022/09/10 11:45:39;;;;;;;3.58;2.30;;;23.00;99.90;;;;;;5032187;28;20264;-77
2022/09/10 11:48:16;;;;;;;4.97;2.58;;;23.20;99.90;;;;;;5033252;28;20201;-82
2022/09/10 11:50:49;;;;;;;3.28;2.13;;;23.30;99.90;;;;;;5034232;28;20273;-77
2022/09/10 11:53:19;;;;;;;3.38;2.08;;;23.30;99.90;;;;;;5033995;28;20282;-80
2022/09/10 11:56:10;;;;;;;3.97;1.50;;;23.10;99.90;;;;;;5032219;28;20203;-78
2022/09/10 11:58:50;;;;;;;2.10;1.90;;;22.80;99.90;;;;;;5033938;28;20534;-82
2022/09/10 12:01:27;;;;;;;4.40;2.50;;;22.50;99.90;;;;;;5032619;28;20213;-78
2022/09/10 12:04:13;;;;;;;6.80;2.47;;;22.50;99.90;;;;;;5031939;28;20202;-76
2022/09/10 12:06:51;;;;;;;5.03;2.92;;;22.70;99.90;;;;;;5033554;28;20202;-76
2022/09/10 12:09:23;;;;;;;5.57;3.25;;;23.00;99.90;;;;;;5031036;28;20513;-78
2022/09/10 12:11:58;;;;;;;4.35;2.80;;;23.10;99.90;;;;;;5032907;28;20653;-77
2022/09/10 12:14:26;;;;;;;6.82;3.10;;;23.20;99.90;;;;;;5031780;28;20292;-79
2022/09/10 12:16:57;;;;;;;3.70;2.55;;;23.20;99.90;;;;;;5032170;28;20199;-76
2022/09/10 12:19:28;;;;;;;2.83;2.38;;;22.90;99.90;;;;;;5031282;28;20233;-77
2022/09/10 12:21:58;;;;;;;4.45;3.08;;;23.00;99.90;;;;;;5032713;28;20213;-75
2022/09/10 12:24:30;;;;;;;4.70;2.75;;;23.20;99.90;;;;;;5030275;28;20221;-75
2022/09/10 12:26:59;;;;;;;4.93;3.20;;;23.20;99.90;;;;;;5032155;28;20587;-76
2022/09/10 12:29:34;;;;;;;4.20;2.40;;;23.00;99.90;;;;;;5031979;28;20210;-78
2022/09/10 12:32:27;;;;;;;4.82;2.95;;;22.80;99.90;;;;;;5029493;28;20191;-77
2022/09/10 12:35:39;;;;;;;6.18;2.92;;;22.60;99.90;;;;;;5029325;28;20195;-76
2022/09/10 12:38:43;;;;;;;5.22;3.60;;;22.30;99.90;;;;;;4932105;29;20198;-79
2022/09/10 12:41:13;;;;;;;3.63;3.15;;;22.10;99.90;;;;;;5031175;28;20654;-76
2022/09/10 12:43:55;;;;;;;2.80;2.60;;;22.10;99.90;;;;;;5030998;28;20313;-79
2022/09/10 12:46:24;;;;;;;4.93;2.63;;;22.30;99.90;;;;;;5032677;28;20209;-79
2022/09/10 12:49:06;;;;;;;7.20;3.15;;;22.50;99.90;;;;;;5032012;28;20276;-75
2022/09/10 12:51:47;;;;;;;4.40;2.38;;;22.80;99.90;;;;;;5031625;28;20610;-77
2022/09/10 12:54:32;;;;;;;3.08;2.10;;;23.00;99.90;;;;;;5030568;28;20218;-77